createdAt,value
2023-04-29T00:00:21.004Z,5.40
2023-04-29T00:02:48.671Z,5.78
2023-04-29T00:05:16.657Z,6.13
2023-04-29T00:07:44.381Z,6.47
2023-04-29T00:10:14.322Z,6.28
2023-04-29T00:12:42.580Z,6.30
2023-04-29T00:18:10.474Z,8.70
2023-04-29T00:20:40.980Z,9.05
2023-04-29T00:23:08.606Z,7.68
2023-04-29T00:25:36.413Z,8.25
2023-04-29T00:28:05.323Z,7.85
2023-04-29T00:30:34.053Z,10.57
2023-04-29T00:33:01.721Z,9.23
2023-04-29T00:35:29.682Z,10.57
2023-04-29T00:37:56.714Z,8.40
2023-04-29T00:40:23.893Z,7.38
2023-04-29T00:42:51.353Z,5.60
2023-04-29T00:45:18.781Z,5.53
2023-04-29T00:47:45.911Z,4.75
2023-04-29T00:50:13.523Z,5.00
2023-04-29T00:52:40.679Z,4.53
2023-04-29T00:55:08.758Z,4.85
2023-04-29T00:57:36.067Z,4.95
2023-04-29T01:00:03.946Z,4.80
2023-04-29T01:02:31.903Z,5.20
2023-04-29T01:04:59.569Z,6.88
2023-04-29T01:07:36.642Z,7.53
2023-04-29T01:10:14.168Z,5.63
2023-04-29T01:13:28.655Z,5.75
2023-04-29T01:16:07.721Z,5.32
2023-04-29T01:18:41.562Z,6.10
2023-04-29T01:21:09.672Z,6.28
2023-04-29T01:23:36.754Z,6.70
2023-04-29T01:26:05.642Z,12.00
2023-04-29T01:29:24.608Z,5.40
2023-04-29T01:32:09.078Z,4.30
2023-04-29T01:34:42.503Z,4.55
2023-04-29T01:37:22.093Z,3.40
2023-04-29T01:40:19.203Z,4.63
2023-04-29T01:43:03.094Z,3.92
2023-04-29T01:45:32.539Z,3.88
2023-04-29T01:47:59.740Z,3.90
2023-04-29T01:50:27.733Z,3.40
2023-04-29T01:53:00.136Z,3.78
2023-04-29T01:55:27.635Z,3.78
2023-04-29T01:58:12.053Z,4.82
2023-04-29T02:01:01.294Z,4.05
2023-04-29T02:03:32.057Z,3.80
2023-04-29T02:06:02.472Z,4.30
2023-04-29T02:08:29.601Z,3.67
2023-04-29T02:10:58.925Z,3.25
2023-04-29T02:13:37.921Z,3.67
2023-04-29T02:16:13.070Z,4.78
2023-04-29T02:18:47.916Z,3.80
2023-04-29T02:21:15.867Z,3.60
2023-04-29T02:23:42.956Z,3.78
2023-04-29T02:26:10.323Z,3.60
2023-04-29T02:28:37.743Z,3.67
2023-04-29T02:31:05.137Z,3.92
2023-04-29T02:33:33.360Z,3.88
2023-04-29T02:36:00.632Z,3.67
2023-04-29T02:38:27.903Z,3.80
2023-04-29T02:40:55.600Z,4.20
2023-04-29T02:43:23.102Z,3.55
2023-04-29T02:45:50.370Z,3.75
2023-04-29T02:53:52.241Z,5.00
2023-04-29T02:56:19.377Z,4.43
2023-04-29T02:58:47.020Z,4.13
2023-04-29T03:01:14.163Z,4.85
2023-04-29T03:03:42.050Z,5.97
2023-04-29T03:06:09.587Z,4.20
2023-04-29T03:08:37.284Z,3.80
2023-04-29T03:11:05.382Z,3.53
2023-04-29T03:13:32.489Z,3.83
2023-04-29T03:16:01.518Z,5.00
2023-04-29T03:18:29.356Z,5.40
2023-04-29T03:20:56.346Z,7.07
2023-04-29T03:23:23.854Z,5.45
2023-04-29T03:25:51.989Z,4.68
2023-04-29T03:28:19.546Z,3.90
2023-04-29T03:30:48.111Z,4.97
2023-04-29T03:33:15.763Z,4.65
2023-04-29T03:35:43.641Z,4.88
2023-04-29T03:38:31.234Z,4.55
2023-04-29T03:40:58.737Z,4.00
2023-04-29T03:43:25.826Z,3.92
2023-04-29T03:45:53.516Z,3.95
2023-04-29T03:48:22.802Z,4.38
2023-04-29T03:50:50.464Z,4.25
2023-04-29T03:53:18.320Z,4.00
2023-04-29T03:55:45.765Z,4.30
2023-04-29T03:58:13.270Z,4.18
2023-04-29T04:00:41.088Z,4.05
2023-04-29T04:03:14.059Z,4.05
2023-04-29T04:05:41.395Z,3.78
2023-04-29T04:08:12.308Z,3.72
2023-04-29T04:10:49.740Z,3.65
2023-04-29T04:13:30.582Z,3.83
2023-04-29T04:15:58.713Z,3.88
2023-04-29T04:18:26.634Z,4.07
2023-04-29T04:20:53.844Z,3.28
2023-04-29T04:23:21.210Z,4.20
2023-04-29T04:25:48.770Z,3.88
2023-04-29T04:28:36.304Z,3.42
2023-04-29T04:31:08.717Z,3.60
2023-04-29T04:33:36.855Z,3.30
2023-04-29T04:36:04.087Z,3.08
2023-04-29T04:38:32.572Z,3.53
2023-04-29T04:41:01.388Z,3.22
2023-04-29T04:43:35.137Z,3.80
2023-04-29T04:46:13.731Z,4.05
2023-04-29T04:48:51.185Z,4.20
2023-04-29T04:51:20.828Z,4.35
2023-04-29T04:53:48.150Z,4.03
2023-04-29T04:56:20.294Z,4.45
2023-04-29T04:58:47.701Z,4.22
2023-04-29T05:01:15.333Z,3.65
2023-04-29T05:03:42.836Z,4.40
2023-04-29T05:06:10.642Z,3.78
2023-04-29T05:08:41.228Z,5.40
2023-04-29T05:11:19.859Z,5.68
2023-04-29T05:14:00.836Z,4.53
2023-04-29T05:16:28.569Z,4.30
2023-04-29T05:18:57.721Z,5.10
2023-04-29T05:21:29.976Z,3.70
2023-04-29T05:23:58.074Z,2.92
2023-04-29T05:26:25.480Z,5.07
2023-04-29T05:28:55.204Z,3.33
2023-04-29T05:31:23.481Z,5.15
2023-04-29T05:33:50.901Z,4.65
2023-04-29T05:36:18.513Z,4.05
2023-04-29T05:38:45.895Z,4.65
2023-04-29T05:41:14.181Z,3.33
2023-04-29T05:43:46.488Z,4.47
2023-04-29T05:46:16.418Z,3.55
2023-04-29T05:48:43.705Z,4.82
2023-04-29T05:51:13.935Z,4.40
2023-04-29T05:53:41.505Z,4.60
2023-04-29T05:56:09.194Z,3.17
2023-04-29T05:58:37.445Z,3.30
2023-04-29T06:01:05.010Z,3.35
2023-04-29T06:03:32.488Z,2.60
2023-04-29T06:06:22.724Z,3.22
2023-04-29T06:09:02.114Z,3.05
2023-04-29T06:11:31.346Z,3.70
2023-04-29T06:14:00.922Z,4.00
2023-04-29T06:16:28.813Z,4.22
2023-04-29T06:18:56.817Z,3.75
2023-04-29T06:21:24.338Z,4.50
2023-04-29T06:23:53.112Z,3.83
2023-04-29T06:26:21.348Z,2.33
2023-04-29T06:28:48.964Z,3.65
2023-04-29T06:31:16.660Z,4.38
2023-04-29T06:33:44.401Z,4.15
2023-04-29T06:36:12.074Z,4.50
2023-04-29T06:39:07.560Z,3.85
2023-04-29T06:41:51.963Z,3.60
2023-04-29T06:44:37.364Z,3.58
2023-04-29T06:47:25.132Z,3.90
2023-04-29T06:50:05.279Z,3.95
2023-04-29T06:52:33.257Z,3.90
2023-04-29T06:55:01.072Z,3.72
2023-04-29T06:57:28.579Z,3.80
2023-04-29T06:59:56.120Z,3.63
2023-04-29T07:02:25.046Z,3.90
2023-04-29T07:04:52.781Z,4.65
2023-04-29T07:07:20.609Z,5.25
2023-04-29T07:09:51.889Z,4.15
2023-04-29T07:12:20.529Z,4.25
2023-04-29T07:14:47.745Z,4.65
2023-04-29T07:17:15.509Z,3.83
2023-04-29T07:19:43.101Z,4.72
2023-04-29T07:22:10.987Z,4.47
2023-04-29T07:24:38.593Z,4.43
2023-04-29T07:27:06.710Z,4.72
2023-04-29T07:29:33.863Z,4.93
2023-04-29T07:32:00.894Z,4.30
2023-04-29T07:34:28.205Z,5.53
2023-04-29T07:36:57.318Z,6.85
2023-04-29T07:39:24.761Z,6.90
2023-04-29T07:41:55.817Z,7.03
2023-04-29T07:44:23.800Z,7.50
2023-04-29T07:46:50.928Z,11.00
2023-04-29T07:49:18.642Z,17.05
2023-04-29T07:51:46.405Z,16.17
2023-04-29T07:54:14.041Z,14.38
2023-04-29T07:56:41.917Z,16.83
2023-04-29T07:59:09.343Z,9.82
2023-04-29T08:01:36.484Z,8.15
2023-04-29T08:04:04.034Z,6.60
2023-04-29T08:06:35.543Z,5.97
2023-04-29T08:09:03.340Z,5.43
2023-04-29T08:11:30.863Z,6.32
2023-04-29T08:13:59.782Z,5.78
2023-04-29T08:16:27.957Z,5.53
2023-04-29T08:18:55.921Z,6.15
2023-04-29T08:21:24.117Z,6.50
2023-04-29T08:23:51.216Z,6.22
2023-04-29T08:26:18.838Z,7.85
2023-04-29T08:28:46.164Z,7.90
2023-04-29T08:31:20.545Z,6.35
2023-04-29T08:33:48.137Z,7.47
2023-04-29T08:36:15.532Z,7.97
2023-04-29T08:38:42.788Z,8.20
2023-04-29T08:41:09.997Z,10.75
2023-04-29T08:43:37.799Z,9.65
2023-04-29T08:46:05.037Z,9.40
2023-04-29T08:48:32.637Z,9.65
2023-04-29T08:51:01.986Z,29.60
2023-04-29T08:53:29.440Z,19.70
2023-04-29T08:55:58.148Z,13.02
2023-04-29T08:58:26.426Z,26.70
2023-04-29T09:00:53.712Z,18.42
2023-04-29T09:03:24.534Z,15.95
2023-04-29T09:05:54.865Z,16.33
2023-04-29T09:08:23.698Z,14.18
2023-04-29T09:10:54.624Z,17.13
2023-04-29T09:13:28.828Z,18.17
2023-04-29T09:15:56.241Z,21.00
2023-04-29T09:18:43.517Z,14.75
2023-04-29T09:21:13.806Z,14.07
2023-04-29T09:23:41.713Z,12.77
2023-04-29T09:26:09.241Z,8.88
2023-04-29T09:28:36.674Z,8.50
2023-04-29T09:31:08.243Z,8.82
2023-04-29T09:33:55.294Z,7.32
2023-04-29T09:36:40.619Z,7.22
2023-04-29T09:39:26.215Z,7.85
2023-04-29T09:41:53.587Z,6.45
2023-04-29T09:44:32.064Z,6.88
2023-04-29T09:47:02.715Z,5.80
2023-04-29T09:49:32.440Z,5.85
2023-04-29T09:52:03.967Z,6.32
2023-04-29T09:54:32.846Z,5.78
2023-04-29T09:57:02.378Z,6.20
2023-04-29T09:59:29.832Z,6.53
2023-04-29T10:01:57.759Z,7.15
2023-04-29T10:04:26.332Z,7.57
2023-04-29T10:06:54.823Z,7.35
2023-04-29T10:09:23.126Z,8.68
2023-04-29T10:11:53.848Z,7.57
2023-04-29T10:14:22.111Z,8.05
2023-04-29T10:16:50.723Z,8.30
2023-04-29T10:19:39.982Z,8.15
2023-04-29T10:22:12.786Z,8.73
2023-04-29T10:24:40.175Z,8.93
2023-04-29T10:27:14.359Z,9.77
2023-04-29T10:29:41.794Z,8.80
2023-04-29T10:32:10.532Z,9.23
2023-04-29T10:34:39.414Z,9.10
2023-04-29T10:37:08.821Z,9.32
2023-04-29T10:39:58.429Z,9.80
2023-04-29T10:42:37.347Z,9.13
2023-04-29T10:45:24.358Z,8.50
2023-04-29T10:48:20.998Z,8.48
2023-04-29T10:50:48.964Z,8.27
2023-04-29T10:53:16.651Z,8.10
2023-04-29T10:55:50.813Z,9.15
2023-04-29T10:58:36.536Z,8.77
2023-04-29T11:01:04.265Z,7.80
2023-04-29T11:03:59.996Z,8.27
2023-04-29T11:06:36.848Z,8.02
2023-04-29T11:09:08.792Z,7.15
2023-04-29T11:11:58.152Z,8.48
2023-04-29T11:14:37.300Z,8.23
2023-04-29T11:17:11.244Z,8.02
2023-04-29T11:19:47.255Z,8.63
2023-04-29T11:22:17.807Z,6.63
2023-04-29T11:24:53.256Z,8.13
2023-04-29T11:27:24.860Z,7.97
2023-04-29T11:29:58.037Z,8.25
2023-04-29T11:32:26.959Z,7.25
2023-04-29T11:34:55.204Z,7.30
2023-04-29T11:37:26.870Z,7.55
2023-04-29T11:39:59.893Z,8.00
2023-04-29T11:44:56.957Z,8.02
2023-04-29T11:47:28.956Z,8.82
2023-04-29T11:50:07.853Z,8.10
2023-04-29T11:52:37.035Z,9.02
2023-04-29T11:55:05.228Z,11.05
2023-04-29T11:57:32.390Z,11.32
2023-04-29T11:59:59.700Z,11.80
2023-04-29T12:02:33.987Z,12.02
2023-04-29T12:05:05.735Z,14.88
2023-04-29T12:07:33.301Z,13.55
2023-04-29T12:10:00.698Z,13.25
2023-04-29T12:12:28.207Z,13.32
2023-04-29T12:14:55.678Z,13.95
2023-04-29T12:17:23.100Z,13.77
2023-04-29T12:19:51.584Z,14.55
2023-04-29T12:22:19.510Z,12.57
2023-04-29T12:24:46.789Z,12.98
2023-04-29T12:27:14.145Z,12.93
2023-04-29T12:29:41.641Z,12.68
2023-04-29T12:32:13.379Z,12.98
2023-04-29T12:34:40.807Z,13.50
2023-04-29T12:37:09.526Z,13.45
2023-04-29T12:39:36.919Z,13.48
2023-04-29T12:42:04.353Z,13.02
2023-04-29T12:44:37.783Z,12.88
2023-04-29T12:47:10.054Z,12.85
2023-04-29T12:49:38.227Z,12.95
2023-04-29T12:52:09.032Z,12.27
2023-04-29T12:54:37.151Z,12.65
2023-04-29T12:57:04.305Z,12.40
2023-04-29T12:59:31.526Z,12.85
2023-04-29T13:01:58.807Z,13.30
2023-04-29T13:04:26.259Z,13.15
2023-04-29T13:07:00.258Z,13.63
2023-04-29T13:09:27.634Z,14.30
2023-04-29T13:11:54.657Z,15.15
2023-04-29T13:14:22.035Z,14.82
2023-04-29T13:16:49.244Z,15.93
2023-04-29T13:19:30.541Z,16.30
2023-04-29T13:22:04.017Z,16.80
2023-04-29T13:24:32.723Z,16.67
2023-04-29T13:27:00.302Z,16.27
2023-04-29T13:29:27.368Z,15.23
2023-04-29T13:31:54.556Z,15.65
2023-04-29T13:34:21.736Z,15.55
2023-04-29T13:36:49.019Z,14.70
2023-04-29T13:39:17.198Z,14.43
2023-04-29T13:41:46.125Z,13.95
2023-04-29T13:46:47.513Z,13.80
2023-04-29T13:49:29.126Z,13.80
2023-04-29T13:59:44.713Z,9.57
2023-04-29T14:02:25.920Z,9.98
2023-04-29T14:04:54.485Z,9.18
2023-04-29T14:07:22.918Z,9.45
2023-04-29T14:09:49.848Z,9.50
2023-04-29T14:12:16.879Z,9.23
2023-04-29T14:14:44.324Z,8.95
2023-04-29T14:17:11.901Z,9.63
2023-04-29T14:19:38.973Z,9.65
2023-04-29T14:22:06.169Z,9.30
2023-04-29T14:24:33.404Z,9.52
2023-04-29T14:27:02.005Z,9.35
2023-04-29T14:29:29.505Z,10.00
2023-04-29T14:31:57.289Z,10.20
2023-04-29T14:34:24.299Z,10.45
2023-04-29T14:36:51.932Z,9.38
2023-04-29T14:39:18.866Z,10.02
2023-04-29T14:41:46.514Z,11.20
2023-04-29T14:44:13.902Z,10.75
2023-04-29T14:46:41.857Z,10.10
2023-04-29T14:49:09.199Z,9.43
2023-04-29T14:51:36.483Z,9.88
2023-04-29T14:54:03.913Z,8.98
2023-04-29T14:56:31.293Z,9.20
2023-04-29T14:58:58.361Z,8.85
2023-04-29T15:01:28.314Z,6.82
2023-04-29T15:03:57.114Z,6.50
2023-04-29T15:06:24.865Z,5.32
2023-04-29T15:08:52.098Z,6.00
2023-04-29T15:11:19.751Z,5.70
2023-04-29T15:13:46.727Z,3.88
2023-04-29T15:16:13.865Z,4.90
2023-04-29T15:18:43.357Z,4.75
2023-04-29T15:21:12.970Z,4.50
2023-04-29T15:23:40.551Z,5.18
2023-04-29T15:26:08.429Z,5.35
2023-04-29T15:28:35.877Z,4.40
2023-04-29T15:31:04.465Z,4.30
2023-04-29T15:33:32.834Z,4.10
2023-04-29T15:36:00.517Z,4.10
2023-04-29T15:38:29.169Z,3.60
2023-04-29T15:41:00.561Z,3.63
2023-04-29T15:43:28.399Z,3.00
2023-04-29T15:45:55.826Z,3.05
2023-04-29T15:48:24.583Z,2.92
2023-04-29T15:50:52.332Z,2.75
2023-04-29T15:53:19.723Z,2.92
2023-04-29T15:55:46.588Z,2.97
2023-04-29T15:58:14.015Z,2.25
2023-04-29T16:00:41.757Z,2.97
2023-04-29T16:03:08.911Z,2.88
2023-04-29T16:05:36.721Z,3.10
2023-04-29T16:08:04.772Z,2.63
2023-04-29T16:10:32.457Z,2.20
2023-04-29T16:13:00.832Z,2.67
2023-04-29T16:15:28.980Z,2.65
2023-04-29T16:17:56.006Z,2.90
2023-04-29T16:20:23.373Z,2.85
2023-04-29T16:22:50.538Z,2.90
2023-04-29T16:25:18.152Z,2.67
2023-04-29T16:27:45.639Z,1.85
2023-04-29T16:30:13.024Z,2.15
2023-04-29T16:32:42.603Z,2.03
2023-04-29T16:35:13.009Z,2.20
2023-04-29T16:37:40.215Z,2.33
2023-04-29T16:40:08.102Z,2.22
2023-04-29T16:42:35.604Z,1.77
2023-04-29T16:45:03.126Z,1.90
2023-04-29T16:47:31.350Z,1.80
2023-04-29T16:49:58.627Z,1.95
2023-04-29T16:52:25.945Z,2.30
2023-04-29T16:54:53.293Z,2.20
2023-04-29T16:57:21.595Z,1.65
2023-04-29T16:59:48.903Z,1.67
2023-04-29T17:02:16.147Z,1.98
2023-04-29T17:04:43.738Z,1.92
2023-04-29T17:07:10.926Z,1.20
2023-04-29T17:09:37.891Z,1.60
2023-04-29T17:12:06.762Z,1.50
2023-04-29T17:14:33.918Z,2.15
2023-04-29T17:17:01.368Z,1.38
2023-04-29T17:19:29.028Z,1.95
2023-04-29T17:21:56.576Z,1.63
2023-04-29T17:24:25.169Z,1.90
2023-04-29T17:26:52.524Z,1.90
2023-04-29T17:29:19.484Z,2.10
2023-04-29T17:31:53.949Z,1.80
2023-04-29T17:34:25.132Z,1.73
2023-04-29T17:36:53.057Z,2.13
2023-04-29T17:39:20.303Z,2.05
2023-04-29T17:41:47.350Z,1.75
2023-04-29T17:44:14.814Z,1.95
2023-04-29T17:46:42.548Z,2.13
2023-04-29T17:49:09.935Z,2.50
2023-04-29T17:51:37.587Z,2.25
2023-04-29T17:54:05.606Z,1.98
2023-04-29T17:56:34.584Z,2.08
2023-04-29T17:59:02.589Z,2.47
2023-04-29T18:01:29.678Z,2.08
2023-04-29T18:03:57.517Z,1.67
2023-04-29T18:06:24.742Z,1.73
2023-04-29T18:08:52.338Z,1.83
2023-04-29T18:11:19.847Z,1.40
2023-04-29T18:13:46.817Z,1.92
2023-04-29T18:16:14.094Z,2.03
2023-04-29T18:18:41.447Z,1.77
2023-04-29T18:21:08.462Z,2.00
2023-04-29T18:23:35.760Z,1.85
2023-04-29T18:26:03.420Z,2.17
2023-04-29T18:28:31.032Z,2.08
2023-04-29T18:30:57.916Z,1.70
2023-04-29T18:33:26.292Z,2.03
2023-04-29T18:35:54.428Z,1.63
2023-04-29T18:38:21.657Z,2.00
2023-04-29T18:40:49.097Z,1.85
2023-04-29T18:43:18.266Z,1.77
2023-04-29T18:45:45.564Z,2.10
2023-04-29T18:48:13.463Z,2.13
2023-04-29T18:50:41.001Z,2.08
2023-04-29T18:53:08.289Z,1.95
2023-04-29T18:55:35.880Z,2.08
2023-04-29T18:58:03.198Z,1.98
2023-04-29T19:00:30.630Z,2.03
2023-04-29T19:02:58.001Z,2.10
2023-04-29T19:05:25.124Z,2.20
2023-04-29T19:07:52.708Z,2.50
2023-04-29T19:10:20.071Z,1.80
2023-04-29T19:12:47.481Z,1.95
2023-04-29T19:15:15.084Z,2.13
2023-04-29T19:17:42.682Z,1.70
2023-04-29T19:20:10.544Z,2.20
2023-04-29T19:22:38.147Z,2.20
2023-04-29T19:25:05.878Z,2.10
2023-04-29T19:27:32.934Z,1.45
2023-04-29T19:30:00.236Z,1.88
2023-04-29T19:32:30.056Z,1.65
2023-04-29T19:34:57.475Z,2.00
2023-04-29T19:37:24.763Z,1.90
2023-04-29T19:39:52.553Z,1.70
2023-04-29T19:42:19.903Z,1.95
2023-04-29T19:44:47.028Z,1.75
2023-04-29T19:47:14.284Z,1.90
2023-04-29T19:49:42.161Z,1.95
2023-04-29T19:52:09.070Z,1.95
2023-04-29T19:54:36.802Z,2.15
2023-04-29T19:57:04.136Z,1.92
2023-04-29T19:59:31.501Z,2.10
2023-04-29T20:01:58.907Z,1.90
2023-04-29T20:04:26.612Z,1.90
2023-04-29T20:06:53.922Z,2.50
2023-04-29T20:09:21.507Z,2.00
2023-04-29T20:11:48.523Z,1.60
2023-04-29T20:14:15.994Z,1.92
2023-04-29T20:16:42.985Z,1.90
2023-04-29T20:19:10.597Z,1.42
2023-04-29T20:21:39.865Z,1.60
2023-04-29T20:24:07.972Z,1.50
2023-04-29T20:26:35.408Z,1.90
2023-04-29T20:29:03.025Z,1.83
2023-04-29T20:31:30.170Z,2.10
2023-04-29T20:33:57.280Z,1.95
2023-04-29T20:36:24.729Z,1.35
2023-04-29T20:38:52.381Z,1.80
2023-04-29T20:41:19.556Z,1.50
2023-04-29T20:43:46.720Z,2.03
2023-04-29T20:46:15.667Z,1.60
2023-04-29T20:48:43.312Z,1.77
2023-04-29T20:51:12.090Z,1.73
2023-04-29T20:53:39.424Z,1.77
2023-04-29T20:56:08.756Z,1.13
2023-04-29T20:58:35.901Z,1.50
2023-04-29T21:01:03.128Z,0.82
2023-04-29T21:03:30.492Z,1.60
2023-04-29T21:05:57.826Z,1.90
2023-04-29T21:08:25.318Z,1.23
2023-04-29T21:10:52.434Z,1.50
2023-04-29T21:13:19.780Z,1.60
2023-04-29T21:15:46.816Z,1.95
2023-04-29T21:18:14.347Z,1.80
2023-04-29T21:20:41.545Z,1.83
2023-04-29T21:23:08.850Z,1.60
2023-04-29T21:25:36.194Z,2.00
2023-04-29T21:28:04.269Z,1.80
2023-04-29T21:30:31.501Z,1.80
2023-04-29T21:32:59.007Z,1.15
2023-04-29T21:35:26.644Z,1.15
2023-04-29T21:37:54.380Z,1.55
2023-04-29T21:40:22.367Z,1.88
2023-04-29T21:42:50.958Z,1.48
2023-04-29T21:45:18.243Z,1.58
2023-04-29T21:47:45.883Z,1.30
2023-04-29T21:50:13.069Z,1.67
2023-04-29T21:52:40.111Z,1.67
2023-04-29T21:55:07.750Z,1.45
2023-04-29T21:57:43.995Z,1.27
2023-04-29T22:00:28.622Z,1.33
2023-04-29T22:02:56.245Z,1.75
2023-04-29T22:05:24.514Z,1.40
2023-04-29T22:07:51.814Z,1.70
2023-04-29T22:10:19.129Z,1.00
2023-04-29T22:12:46.318Z,1.50
2023-04-29T22:15:26.898Z,0.95
2023-04-29T22:17:56.499Z,1.75
2023-04-29T22:20:23.623Z,1.10
2023-04-29T22:22:51.717Z,1.50
2023-04-29T22:25:22.132Z,1.95
2023-04-29T22:27:49.772Z,1.40
2023-04-29T22:30:20.445Z,1.45
2023-04-29T22:32:47.679Z,1.65
2023-04-29T22:35:15.734Z,1.30
2023-04-29T22:37:43.224Z,1.50
2023-04-29T22:40:11.568Z,1.88
2023-04-29T22:42:39.369Z,2.13
2023-04-29T22:45:06.956Z,1.58
2023-04-29T22:47:34.319Z,1.70
2023-04-29T22:50:01.616Z,1.23
2023-04-29T22:52:28.956Z,1.52
2023-04-29T22:54:56.149Z,1.40
2023-04-29T22:57:23.493Z,1.30
2023-04-29T22:59:56.300Z,1.33
2023-04-29T23:02:32.978Z,1.35
2023-04-29T23:05:00.717Z,1.60
2023-04-29T23:07:30.532Z,2.65
2023-04-29T23:09:58.089Z,1.38
2023-04-29T23:12:25.459Z,1.48
2023-04-29T23:14:52.535Z,1.50
2023-04-29T23:17:19.878Z,1.58
2023-04-29T23:19:47.149Z,1.30
2023-04-29T23:22:14.811Z,1.33
2023-04-29T23:24:42.147Z,1.80
2023-04-29T23:27:09.412Z,1.60
2023-04-29T23:29:36.420Z,1.50
2023-04-29T23:32:03.596Z,1.52
2023-04-29T23:34:30.924Z,1.40
2023-04-29T23:36:57.829Z,1.40
2023-04-29T23:39:25.824Z,1.45
2023-04-29T23:41:53.101Z,1.33
2023-04-29T23:44:20.824Z,1.50
2023-04-29T23:46:48.254Z,1.40
2023-04-29T23:49:15.393Z,1.33
2023-04-29T23:51:42.827Z,1.40
2023-04-29T23:54:10.110Z,1.48
2023-04-29T23:56:37.457Z,1.40
2023-04-29T23:59:04.902Z,1.38
